createdAt,value
2019-04-28T00:02:01.712Z,2.83
2019-04-28T00:06:05.574Z,2.08
2019-04-28T00:11:21.650Z,1.90
2019-04-28T00:22:15.983Z,1.77
2019-04-28T00:27:23.279Z,1.57
2019-04-28T00:32:32.491Z,1.60
2019-04-28T00:37:43.582Z,1.80
2019-04-28T00:42:45.855Z,1.45
2019-04-28T00:48:01.103Z,1.85
2019-04-28T00:53:11.611Z,1.60
2019-04-28T00:58:21.466Z,1.90
2019-04-28T01:03:26.723Z,2.10
2019-04-28T01:08:34.365Z,2.10
2019-04-28T01:13:41.969Z,2.70
2019-04-28T01:18:52.145Z,2.80
2019-04-28T01:23:59.750Z,3.30
2019-04-28T01:29:06.615Z,3.58
2019-04-28T01:34:20.412Z,4.30
2019-04-28T01:39:27.052Z,4.20
2019-04-28T01:44:36.861Z,5.05
2019-04-28T01:49:43.769Z,4.83
2019-04-28T01:54:51.160Z,5.10
2019-04-28T01:59:59.839Z,5.60
2019-04-28T02:05:05.698Z,7.00
2019-04-28T02:10:11.933Z,7.10
2019-04-28T02:15:20.354Z,7.25
2019-04-28T02:20:26.055Z,7.42
2019-04-28T02:25:34.702Z,7.28
2019-04-28T02:30:49.406Z,7.30
2019-04-28T02:35:52.126Z,7.70
2019-04-28T02:41:04.176Z,7.80
2019-04-28T02:46:12.819Z,7.95
2019-04-28T02:51:30.872Z,8.38
2019-04-28T02:56:43.649Z,7.78
2019-04-28T03:01:44.809Z,8.43
2019-04-28T03:06:51.873Z,7.35
2019-04-28T03:12:01.514Z,7.75
2019-04-28T03:17:12.611Z,9.05
2019-04-28T03:22:17.041Z,8.83
2019-04-28T03:27:50.914Z,9.08
2019-04-28T03:33:05.784Z,9.25
2019-04-28T03:38:06.386Z,8.93
2019-04-28T03:43:14.268Z,8.40
2019-04-28T03:48:23.015Z,7.67
2019-04-28T03:53:26.631Z,7.03
2019-04-28T03:58:31.334Z,6.50
2019-04-28T04:03:42.143Z,6.80
2019-04-28T04:08:50.687Z,7.03
2019-04-28T04:14:01.556Z,6.60
2019-04-28T04:19:10.663Z,6.70
2019-04-28T04:24:16.246Z,6.08
2019-04-28T04:29:21.711Z,6.12
2019-04-28T04:34:30.119Z,6.65
2019-04-28T04:39:34.095Z,6.97
2019-04-28T04:44:41.523Z,6.70
2019-04-28T04:49:47.543Z,6.60
2019-04-28T04:54:57.650Z,6.22
2019-04-28T05:00:06.758Z,6.55
2019-04-28T05:05:13.217Z,6.17
2019-04-28T05:10:23.424Z,5.35
2019-04-28T05:15:35.742Z,5.60
2019-04-28T05:20:44.709Z,6.07
2019-04-28T05:25:55.162Z,6.58
2019-04-28T05:31:01.809Z,7.40
2019-04-28T05:36:09.855Z,7.65
2019-04-28T05:41:15.223Z,7.40
2019-04-28T05:46:21.920Z,6.97
2019-04-28T05:51:34.324Z,8.58
2019-04-28T05:56:46.545Z,8.53
2019-04-28T06:02:00.507Z,8.45
2019-04-28T06:07:10.208Z,7.97
2019-04-28T06:12:16.346Z,7.45
2019-04-28T06:17:20.812Z,7.80
2019-04-28T06:22:25.026Z,8.85
2019-04-28T06:27:29.354Z,8.48
2019-04-28T06:32:33.824Z,9.90
2019-04-28T06:37:38.034Z,10.10
2019-04-28T06:42:42.521Z,11.43
2019-04-28T06:47:46.768Z,10.50
2019-04-28T06:52:51.036Z,9.48
2019-04-28T06:57:55.315Z,8.83
2019-04-28T07:02:59.579Z,10.75
2019-04-28T07:08:04.024Z,11.05
2019-04-28T07:13:08.240Z,10.93
2019-04-28T07:18:12.501Z,10.15
2019-04-28T07:23:16.782Z,10.15
2019-04-28T07:28:21.016Z,10.53
2019-04-28T07:33:35.510Z,11.60
2019-04-28T07:38:31.234Z,12.13
2019-04-28T07:43:35.430Z,12.40
2019-04-28T07:48:39.656Z,12.05
2019-04-28T07:53:45.496Z,12.53
2019-04-28T07:58:49.786Z,13.35
2019-04-28T08:03:54.104Z,13.70
2019-04-28T08:08:58.290Z,12.65
2019-04-28T08:14:02.501Z,15.38
2019-04-28T08:19:06.930Z,14.70
2019-04-28T08:24:11.175Z,14.65
2019-04-28T08:29:15.535Z,15.72
2019-04-28T08:34:21.392Z,15.38
2019-04-28T08:39:26.808Z,15.32
2019-04-28T08:44:31.169Z,12.73
2019-04-28T08:49:35.390Z,10.70
2019-04-28T08:54:39.643Z,12.28
2019-04-28T08:59:43.892Z,14.38
2019-04-28T09:04:48.483Z,15.93
2019-04-28T09:09:52.802Z,15.63
2019-04-28T09:14:58.022Z,15.40
2019-04-28T09:20:02.621Z,12.80
2019-04-28T09:25:07.866Z,12.00
2019-04-28T09:30:12.637Z,12.73
2019-04-28T09:35:16.953Z,10.95
2019-04-28T09:40:21.152Z,11.85
2019-04-28T09:45:27.029Z,12.05
2019-04-28T09:50:31.409Z,13.18
2019-04-28T09:55:35.622Z,12.68
2019-04-28T10:00:40.648Z,11.75
2019-04-28T10:05:45.250Z,11.57
2019-04-28T10:10:51.176Z,13.50
2019-04-28T10:15:55.488Z,12.58
2019-04-28T10:20:59.799Z,12.47
2019-04-28T10:26:04.023Z,13.78
2019-04-28T10:31:08.652Z,13.70
2019-04-28T10:36:13.192Z,14.38
2019-04-28T10:41:19.044Z,15.05
2019-04-28T10:46:23.286Z,16.00
2019-04-28T10:51:27.576Z,15.85
2019-04-28T10:56:31.821Z,17.12
2019-04-28T11:01:36.075Z,17.87
2019-04-28T11:06:40.339Z,16.95
2019-04-28T11:11:44.757Z,16.67
2019-04-28T11:16:49.119Z,16.30
2019-04-28T11:21:54.472Z,14.93
2019-04-28T11:27:00.427Z,13.78
2019-04-28T11:32:04.658Z,13.18
2019-04-28T11:37:09.554Z,12.78
2019-04-28T11:42:13.979Z,12.07
2019-04-28T11:47:19.913Z,10.72
2019-04-28T11:52:24.327Z,10.10
2019-04-28T11:57:28.685Z,9.93
2019-04-28T12:02:32.966Z,8.63
2019-04-28T12:07:37.532Z,7.85
2019-04-28T12:12:47.823Z,7.95
2019-04-28T12:17:56.539Z,8.38
2019-04-28T12:23:01.035Z,7.50
2019-04-28T12:28:05.587Z,7.90
2019-04-28T12:33:10.065Z,8.30
2019-04-28T12:38:14.411Z,8.48
2019-04-28T12:43:18.786Z,8.53
2019-04-28T12:48:23.340Z,8.50
2019-04-28T12:53:27.703Z,8.78
2019-04-28T12:58:32.111Z,9.13
2019-04-28T13:03:43.635Z,8.95
2019-04-28T13:08:47.949Z,8.80
2019-04-28T13:13:52.410Z,8.93
2019-04-28T13:18:56.727Z,8.55
2019-04-28T13:24:01.342Z,8.75
2019-04-28T13:29:05.592Z,8.60
2019-04-28T13:34:12.005Z,9.50
2019-04-28T13:39:18.106Z,8.53
2019-04-28T13:44:42.408Z,9.38
2019-04-28T13:49:51.421Z,8.48
2019-04-28T13:54:57.455Z,8.65
2019-04-28T14:00:03.496Z,8.40
2019-04-28T14:05:15.336Z,8.80
2019-04-28T14:10:19.674Z,9.15
2019-04-28T14:15:24.383Z,8.45
2019-04-28T14:20:28.800Z,8.55
2019-04-28T14:25:34.933Z,8.45
2019-04-28T14:30:39.209Z,7.55
2019-04-28T14:35:43.435Z,7.08
2019-04-28T14:40:47.655Z,7.25
2019-04-28T14:45:51.888Z,7.50
2019-04-28T14:50:56.078Z,6.10
2019-04-28T14:56:00.350Z,6.45
2019-04-28T15:01:18.136Z,5.53
2019-04-28T15:06:23.983Z,6.25
2019-04-28T15:11:32.476Z,11.73
2019-04-28T15:16:36.666Z,14.05
2019-04-28T15:21:40.883Z,11.85
2019-04-28T15:26:45.082Z,15.20
2019-04-28T15:31:49.327Z,13.38
2019-04-28T15:36:53.653Z,14.15
2019-04-28T15:41:57.974Z,15.78
2019-04-28T15:47:04.519Z,16.15
2019-04-28T15:52:08.871Z,14.07
2019-04-28T15:57:13.145Z,12.23
2019-04-28T16:02:17.372Z,13.75
2019-04-28T16:07:25.093Z,13.05
2019-04-28T16:12:27.629Z,9.33
2019-04-28T16:17:31.862Z,9.55
2019-04-28T16:22:36.070Z,9.58
2019-04-28T16:27:40.293Z,8.93
2019-04-28T16:32:44.544Z,8.68
2019-04-28T16:37:48.798Z,8.45
2019-04-28T16:42:53.249Z,7.75
2019-04-28T16:47:57.564Z,7.35
2019-04-28T16:53:01.815Z,7.25
2019-04-28T16:58:07.671Z,6.80
2019-04-28T17:03:13.603Z,7.70
2019-04-28T17:08:18.028Z,7.53
2019-04-28T17:13:22.461Z,6.58
2019-04-28T17:18:26.879Z,6.00
2019-04-28T17:23:31.926Z,6.97
2019-04-28T17:28:36.423Z,6.83
2019-04-28T17:33:40.739Z,7.53
2019-04-28T17:38:45.044Z,7.47
2019-04-28T17:43:49.398Z,7.45
2019-04-28T17:48:58.718Z,7.72
2019-04-28T17:54:04.751Z,8.10
2019-04-28T17:59:09.404Z,10.15
2019-04-28T18:04:36.679Z,9.98
2019-04-28T18:09:41.558Z,11.35
2019-04-28T18:14:47.795Z,11.15
2019-04-28T18:19:53.885Z,10.18
2019-04-28T18:24:58.335Z,9.93
2019-04-28T18:30:03.125Z,12.60
2019-04-28T18:35:12.259Z,11.40
2019-04-28T18:40:26.882Z,11.83
2019-04-28T18:45:32.761Z,11.97
2019-04-28T18:50:37.075Z,14.18
2019-04-28T18:55:41.316Z,15.72
2019-04-28T19:00:47.145Z,15.85
2019-04-28T19:05:53.008Z,15.63
2019-04-28T19:11:00.484Z,15.28
2019-04-28T19:16:09.442Z,16.57
2019-04-28T19:21:13.647Z,33.20
2019-04-28T19:26:18.011Z,19.95
2019-04-28T19:31:22.232Z,22.07
2019-04-28T19:36:26.446Z,18.85
2019-04-28T19:42:07.316Z,19.35
2019-04-28T19:53:35.133Z,28.85
2019-04-28T19:58:45.815Z,33.48
2019-04-28T20:03:53.684Z,34.38
2019-04-28T20:09:13.350Z,27.70
2019-04-28T20:14:07.247Z,26.20
2019-04-28T20:19:21.907Z,24.67
2019-04-28T20:24:30.915Z,25.57
2019-04-28T20:29:46.673Z,24.52
2019-04-28T20:34:55.083Z,26.70
2019-04-28T20:40:09.024Z,29.10
2019-04-28T20:45:18.633Z,31.68
2019-04-28T20:50:30.651Z,29.50
2019-04-28T20:55:39.364Z,28.02
2019-04-28T21:00:51.572Z,47.40
2019-04-28T21:05:55.366Z,43.02
2019-04-28T21:11:17.014Z,39.15
2019-04-28T21:16:23.588Z,39.00
2019-04-28T21:21:39.223Z,36.20
2019-04-28T21:27:08.357Z,33.55
2019-04-28T21:32:13.694Z,31.15
2019-04-28T21:37:24.785Z,29.23
2019-04-28T21:42:58.031Z,27.17
2019-04-28T21:53:16.423Z,25.43
2019-04-28T21:58:32.522Z,27.80
2019-04-28T22:03:42.793Z,26.73
2019-04-28T22:08:43.354Z,27.27
2019-04-28T22:13:51.058Z,25.77
2019-04-28T22:19:00.068Z,26.97
2019-04-28T22:24:17.459Z,25.68
2019-04-28T22:29:29.546Z,26.37
2019-04-28T22:35:00.047Z,25.92
2019-04-28T22:39:47.180Z,25.43
2019-04-28T22:44:56.136Z,24.92
2019-04-28T22:50:15.912Z,26.40
2019-04-28T22:55:22.116Z,26.62
2019-04-28T23:00:41.988Z,27.37
2019-04-28T23:05:50.396Z,27.82
2019-04-28T23:11:13.870Z,25.08
2019-04-28T23:21:19.365Z,27.40
2019-04-28T23:26:31.214Z,25.82
2019-04-28T23:31:37.405Z,23.83
2019-04-28T23:36:46.296Z,26.90
2019-04-28T23:42:15.602Z,26.15
2019-04-28T23:47:28.000Z,25.55
2019-04-28T23:52:36.905Z,26.73
2019-04-28T23:57:46.146Z,24.45
